createdAt,value
2018-01-24T00:01:50.888Z,5.10
2018-01-24T00:04:17.124Z,4.10
2018-01-24T00:06:43.374Z,4.07
2018-01-24T00:09:09.615Z,3.80
2018-01-24T00:11:35.849Z,5.03
2018-01-24T00:14:02.100Z,3.83
2018-01-24T00:16:28.343Z,3.40
2018-01-24T00:18:55.331Z,2.70
2018-01-24T00:21:21.562Z,2.20
2018-01-24T00:23:47.800Z,2.30
2018-01-24T00:26:14.047Z,2.83
2018-01-24T00:28:40.439Z,4.20
2018-01-24T00:31:06.663Z,2.77
2018-01-24T00:33:32.915Z,3.20
2018-01-24T00:35:59.199Z,2.23
2018-01-24T00:38:26.183Z,3.33
2018-01-24T00:40:52.409Z,3.40
2018-01-24T00:43:18.656Z,4.87
2018-01-24T00:45:44.917Z,4.07
2018-01-24T00:48:12.091Z,4.57
2018-01-24T00:50:39.059Z,4.00
2018-01-24T00:53:05.314Z,3.60
2018-01-24T00:55:31.540Z,3.27
2018-01-24T00:57:57.879Z,2.00
2018-01-24T01:00:24.118Z,2.60
2018-01-24T01:02:50.347Z,2.17
2018-01-24T01:05:16.598Z,1.90
2018-01-24T01:07:50.780Z,2.00
2018-01-24T01:10:17.037Z,3.30
2018-01-24T01:12:43.242Z,3.07
2018-01-24T01:15:09.469Z,1.87
2018-01-24T01:17:35.701Z,2.00
2018-01-24T01:20:01.957Z,2.10
2018-01-24T01:22:28.183Z,2.77
2018-01-24T01:24:54.424Z,2.00
2018-01-24T01:27:21.401Z,1.93
2018-01-24T01:29:47.648Z,1.60
2018-01-24T01:32:13.878Z,1.60
2018-01-24T01:34:40.125Z,1.90
2018-01-24T01:37:06.415Z,2.20
2018-01-24T01:39:32.640Z,1.60
2018-01-24T01:41:58.886Z,2.87
2018-01-24T01:44:25.124Z,2.10
2018-01-24T01:46:51.350Z,2.60
2018-01-24T01:49:17.608Z,1.80
2018-01-24T01:51:43.834Z,1.70
2018-01-24T01:54:10.130Z,1.70
2018-01-24T01:56:36.382Z,1.70
2018-01-24T01:59:02.642Z,2.27
2018-01-24T02:01:28.866Z,5.20
2018-01-24T02:03:55.123Z,6.90
2018-01-24T02:06:22.074Z,8.70
2018-01-24T02:08:48.371Z,9.87
2018-01-24T02:11:15.034Z,8.43
2018-01-24T02:13:42.033Z,9.60
2018-01-24T02:16:08.288Z,9.53
2018-01-24T02:18:35.333Z,11.10
2018-01-24T02:21:01.593Z,9.80
2018-01-24T02:23:28.583Z,10.50
2018-01-24T02:25:54.804Z,9.50
2018-01-24T02:28:21.031Z,9.43
2018-01-24T02:30:47.270Z,10.93
2018-01-24T02:33:13.515Z,10.33
2018-01-24T02:35:39.738Z,10.30
2018-01-24T02:38:05.954Z,10.97
2018-01-24T02:40:32.187Z,11.10
2018-01-24T02:42:58.454Z,11.00
2018-01-24T02:45:24.761Z,11.00
2018-01-24T02:47:50.984Z,9.70
2018-01-24T02:50:17.200Z,10.07
2018-01-24T02:52:43.419Z,8.70
2018-01-24T02:55:16.747Z,12.10
2018-01-24T02:57:42.979Z,11.10
2018-01-24T03:00:09.215Z,10.30
2018-01-24T03:02:35.439Z,10.40
2018-01-24T03:05:01.676Z,8.90
2018-01-24T03:07:27.912Z,6.80
2018-01-24T03:09:54.877Z,6.40
2018-01-24T03:12:21.124Z,8.13
2018-01-24T03:14:47.344Z,6.90
2018-01-24T03:17:13.587Z,8.80
2018-01-24T03:19:39.815Z,6.77
2018-01-24T03:22:06.066Z,7.20
2018-01-24T03:24:32.295Z,8.50
2018-01-24T03:26:58.537Z,9.80
2018-01-24T03:29:24.743Z,9.47
2018-01-24T03:31:50.996Z,11.30
2018-01-24T03:34:17.212Z,13.40
2018-01-24T03:36:43.456Z,13.00
2018-01-24T03:39:09.660Z,14.73
2018-01-24T03:41:35.880Z,13.23
2018-01-24T03:44:02.136Z,14.43
2018-01-24T03:46:28.384Z,12.57
2018-01-24T03:48:54.615Z,13.40
2018-01-24T03:51:20.840Z,13.93
2018-01-24T03:53:47.074Z,13.30
2018-01-24T03:56:14.044Z,14.00
2018-01-24T03:58:40.266Z,14.13
2018-01-24T04:01:07.263Z,15.17
2018-01-24T04:03:33.475Z,15.20
2018-01-24T04:05:59.725Z,15.43
2018-01-24T04:08:25.929Z,15.70
2018-01-24T04:10:52.172Z,14.90
2018-01-24T04:13:18.399Z,16.10
2018-01-24T04:15:44.648Z,15.43
2018-01-24T04:18:10.867Z,16.17
2018-01-24T04:20:37.115Z,14.40
2018-01-24T04:23:03.331Z,15.90
2018-01-24T04:25:29.585Z,15.37
2018-01-24T04:27:55.837Z,15.80
2018-01-24T04:30:22.083Z,15.80
2018-01-24T04:32:48.323Z,15.17
2018-01-24T04:35:14.559Z,15.90
2018-01-24T04:37:40.784Z,15.73
2018-01-24T04:40:07.079Z,14.97
2018-01-24T04:42:33.307Z,16.40
2018-01-24T04:44:59.557Z,15.57
2018-01-24T04:47:25.808Z,14.60
2018-01-24T04:49:52.028Z,13.40
2018-01-24T04:52:18.278Z,14.80
2018-01-24T04:54:44.532Z,13.60
2018-01-24T04:57:10.782Z,14.80
2018-01-24T04:59:37.770Z,13.80
2018-01-24T05:02:04.024Z,14.43
2018-01-24T05:04:30.260Z,14.77
2018-01-24T05:06:56.494Z,13.13
2018-01-24T05:09:23.475Z,15.50
2018-01-24T05:11:49.703Z,14.47
2018-01-24T05:14:15.934Z,13.67
2018-01-24T05:16:42.186Z,13.13
2018-01-24T05:19:08.506Z,13.37
2018-01-24T05:21:34.796Z,13.23
2018-01-24T05:24:01.780Z,12.13
2018-01-24T05:26:28.057Z,12.60
2018-01-24T05:28:54.311Z,15.67
2018-01-24T05:31:21.344Z,11.20
2018-01-24T05:33:48.323Z,12.57
2018-01-24T05:36:14.579Z,12.57
2018-01-24T05:38:40.800Z,11.40
2018-01-24T05:41:07.094Z,11.27
2018-01-24T05:43:34.103Z,10.23
2018-01-24T05:46:00.367Z,12.10
2018-01-24T05:48:27.340Z,10.40
2018-01-24T05:50:53.748Z,9.53
2018-01-24T05:53:20.754Z,8.70
2018-01-24T05:55:47.051Z,7.40
2018-01-24T05:58:13.324Z,6.57
2018-01-24T06:00:39.608Z,7.03
2018-01-24T06:03:05.858Z,6.40
2018-01-24T06:05:32.192Z,6.53
2018-01-24T06:07:58.520Z,3.13
2018-01-24T06:10:24.814Z,4.63
2018-01-24T06:12:51.855Z,4.10
2018-01-24T06:15:18.901Z,2.87
2018-01-24T06:17:45.143Z,3.60
2018-01-24T06:20:11.431Z,3.30
2018-01-24T06:22:39.135Z,3.27
2018-01-24T06:25:05.399Z,4.47
2018-01-24T06:27:31.635Z,5.00
2018-01-24T06:29:57.869Z,6.10
2018-01-24T06:32:24.091Z,5.77
2018-01-24T06:34:50.341Z,5.10
2018-01-24T06:37:16.552Z,5.40
2018-01-24T06:39:42.775Z,6.20
2018-01-24T06:42:08.988Z,5.57
2018-01-24T06:44:35.211Z,5.63
2018-01-24T06:47:01.444Z,5.30
2018-01-24T06:49:27.719Z,4.97
2018-01-24T06:51:53.968Z,4.53
2018-01-24T06:54:20.984Z,4.00
2018-01-24T06:56:47.212Z,2.67
2018-01-24T06:59:13.470Z,2.60
2018-01-24T07:01:40.442Z,2.53
2018-01-24T07:04:06.680Z,3.00
2018-01-24T07:06:32.904Z,3.77
2018-01-24T07:08:59.136Z,4.20
2018-01-24T07:11:25.452Z,3.63
2018-01-24T07:17:09.584Z,2.90
2018-01-24T07:19:35.894Z,3.00
2018-01-24T07:22:02.152Z,2.20
2018-01-24T07:24:28.408Z,2.27
2018-01-24T07:26:55.386Z,2.13
2018-01-24T07:29:21.660Z,2.23
2018-01-24T07:31:47.868Z,1.07
2018-01-24T07:34:14.111Z,1.20
2018-01-24T07:36:40.465Z,1.00
2018-01-24T07:39:06.695Z,0.93
2018-01-24T07:41:32.947Z,1.00
2018-01-24T07:43:59.209Z,1.10
2018-01-24T07:46:25.420Z,0.80
2018-01-24T07:48:51.717Z,0.80
2018-01-24T07:51:17.989Z,0.87
2018-01-24T07:53:44.275Z,0.90
2018-01-24T07:56:11.263Z,0.90
2018-01-24T07:58:37.643Z,0.97
2018-01-24T08:01:03.927Z,1.17
2018-01-24T08:03:30.201Z,0.83
2018-01-24T08:05:57.179Z,0.90
2018-01-24T08:08:23.435Z,0.80
2018-01-24T08:10:49.704Z,1.30
2018-01-24T08:13:15.973Z,1.00
2018-01-24T08:15:42.290Z,1.00
2018-01-24T08:18:08.540Z,0.90
2018-01-24T08:20:34.768Z,0.93
2018-01-24T08:23:01.019Z,0.90
2018-01-24T08:25:27.274Z,1.23
2018-01-24T08:27:53.550Z,0.80
2018-01-24T08:30:19.810Z,1.00
2018-01-24T08:32:46.088Z,1.20
2018-01-24T08:35:12.324Z,0.73
2018-01-24T08:37:38.588Z,0.70
2018-01-24T08:40:04.862Z,1.40
2018-01-24T08:42:31.916Z,1.03
2018-01-24T08:44:58.939Z,1.10
2018-01-24T08:47:25.432Z,0.80
2018-01-24T08:49:51.727Z,0.63
2018-01-24T08:52:18.705Z,0.90
2018-01-24T08:54:44.943Z,0.70
2018-01-24T08:57:11.202Z,0.73
2018-01-24T08:59:37.967Z,0.70
2018-01-24T09:02:04.208Z,1.00
2018-01-24T09:04:31.494Z,0.80
2018-01-24T09:06:57.748Z,0.60
2018-01-24T09:09:23.988Z,1.20
2018-01-24T09:11:50.704Z,0.90
2018-01-24T09:14:17.040Z,0.70
2018-01-24T09:16:43.370Z,1.10
2018-01-24T09:19:09.716Z,0.80
2018-01-24T09:21:36.402Z,0.80
2018-01-24T09:24:03.728Z,0.70
2018-01-24T09:26:29.994Z,0.60
2018-01-24T09:28:56.241Z,0.60
2018-01-24T09:31:22.488Z,0.50
2018-01-24T09:33:48.733Z,0.70
2018-01-24T09:36:14.986Z,1.00
2018-01-24T09:38:41.998Z,0.90
2018-01-24T09:41:08.324Z,0.80
2018-01-24T09:43:34.573Z,0.93
2018-01-24T09:46:00.969Z,0.90
2018-01-24T09:48:27.227Z,0.67
2018-01-24T09:50:53.443Z,0.90
2018-01-24T09:53:19.665Z,0.70
2018-01-24T09:55:45.913Z,0.83
2018-01-24T09:58:12.119Z,0.70
2018-01-24T10:00:38.413Z,0.93
2018-01-24T10:03:05.429Z,0.70
2018-01-24T10:05:31.687Z,0.70
2018-01-24T10:07:58.669Z,1.00
2018-01-24T10:10:24.904Z,0.70
2018-01-24T10:12:51.160Z,0.70
2018-01-24T10:15:17.414Z,0.77
2018-01-24T10:17:44.388Z,0.90
2018-01-24T10:20:10.635Z,0.60
2018-01-24T10:22:36.871Z,0.70
2018-01-24T10:25:03.148Z,0.87
2018-01-24T10:27:30.138Z,0.80
2018-01-24T10:29:56.432Z,1.40
2018-01-24T10:32:22.748Z,1.23
2018-01-24T10:34:48.992Z,1.03
2018-01-24T10:37:16.052Z,1.00
2018-01-24T10:39:42.350Z,0.80
2018-01-24T10:42:08.707Z,0.60
2018-01-24T10:44:34.984Z,0.63
2018-01-24T10:47:01.223Z,0.73
2018-01-24T10:49:27.461Z,0.70
2018-01-24T10:51:53.731Z,0.60
2018-01-24T10:54:19.993Z,0.70
2018-01-24T10:56:46.493Z,0.70
2018-01-24T10:59:12.795Z,0.70
2018-01-24T11:01:39.047Z,0.77
2018-01-24T11:04:05.311Z,0.80
2018-01-24T11:06:31.527Z,0.60
2018-01-24T11:08:57.796Z,0.60
2018-01-24T11:11:24.043Z,0.60
2018-01-24T11:13:50.276Z,0.60
2018-01-24T11:16:16.577Z,0.50
2018-01-24T11:18:42.815Z,0.90
2018-01-24T11:21:09.067Z,0.87
2018-01-24T11:23:35.395Z,0.73
2018-01-24T11:26:02.384Z,1.00
2018-01-24T11:28:28.682Z,0.80
2018-01-24T11:30:55.724Z,0.67
2018-01-24T11:33:22.032Z,0.57
2018-01-24T11:35:48.282Z,0.60
2018-01-24T11:38:15.360Z,0.90
2018-01-24T11:40:41.644Z,0.67
2018-01-24T11:43:07.917Z,0.50
2018-01-24T11:45:34.288Z,0.70
2018-01-24T11:48:00.534Z,0.57
2018-01-24T11:50:26.833Z,0.50
2018-01-24T11:52:53.078Z,0.50
2018-01-24T11:55:19.394Z,0.80
2018-01-24T11:57:45.632Z,0.50
2018-01-24T12:00:12.720Z,0.50
2018-01-24T12:02:39.698Z,0.60
2018-01-24T12:05:12.975Z,0.57
2018-01-24T12:07:40.009Z,0.70
2018-01-24T12:10:06.332Z,0.50
2018-01-24T12:12:32.584Z,1.03
2018-01-24T12:14:59.643Z,0.70
2018-01-24T12:17:26.642Z,0.60
2018-01-24T12:19:52.876Z,0.60
2018-01-24T12:22:19.133Z,0.60
2018-01-24T12:24:46.171Z,0.60
2018-01-24T12:27:13.313Z,0.60
2018-01-24T12:29:39.612Z,0.83
2018-01-24T12:32:05.868Z,0.63
2018-01-24T12:34:32.173Z,0.70
2018-01-24T12:36:58.428Z,0.60
2018-01-24T12:39:24.691Z,1.00
2018-01-24T12:41:51.665Z,0.70
2018-01-24T12:44:17.905Z,0.70
2018-01-24T12:46:44.155Z,5.57
2018-01-24T12:49:10.424Z,4.13
2018-01-24T12:51:37.288Z,4.70
2018-01-24T12:54:03.554Z,3.37
2018-01-24T12:56:29.808Z,5.43
2018-01-24T12:58:56.054Z,0.70
2018-01-24T13:01:23.084Z,1.07
2018-01-24T13:03:49.332Z,0.80
2018-01-24T13:06:16.346Z,0.83
2018-01-24T13:08:42.596Z,0.57
2018-01-24T13:11:09.608Z,0.70
2018-01-24T13:13:35.867Z,0.70
2018-01-24T13:16:02.989Z,0.70
2018-01-24T13:18:29.292Z,0.47
2018-01-24T13:20:56.221Z,0.53
2018-01-24T13:23:22.456Z,0.67
2018-01-24T13:25:48.703Z,0.50
2018-01-24T13:28:14.989Z,0.50
2018-01-24T13:30:41.996Z,0.60
2018-01-24T13:33:09.013Z,0.50
2018-01-24T13:35:35.338Z,0.63
2018-01-24T13:38:03.263Z,0.50
2018-01-24T13:40:29.602Z,0.57
2018-01-24T13:42:55.840Z,0.50
2018-01-24T13:45:22.080Z,0.50
2018-01-24T13:47:49.052Z,0.60
2018-01-24T13:50:15.358Z,0.67
2018-01-24T13:52:42.372Z,0.50
2018-01-24T13:55:09.589Z,0.50
2018-01-24T13:57:35.855Z,0.60
2018-01-24T14:00:02.105Z,0.50
2018-01-24T14:02:28.569Z,0.53
2018-01-24T14:04:54.803Z,0.60
2018-01-24T14:07:21.053Z,0.50
2018-01-24T14:09:47.327Z,0.70
2018-01-24T14:12:13.605Z,0.60
2018-01-24T14:14:39.871Z,0.57
2018-01-24T14:17:06.139Z,0.57
2018-01-24T14:19:33.105Z,0.50
2018-01-24T14:21:59.355Z,0.70
2018-01-24T14:24:25.627Z,0.90
2018-01-24T14:26:52.892Z,0.80
2018-01-24T14:29:19.189Z,0.73
2018-01-24T14:31:45.447Z,0.50
2018-01-24T14:34:12.420Z,0.40
2018-01-24T14:36:38.704Z,0.50
2018-01-24T14:39:04.965Z,0.50
2018-01-24T14:41:32.020Z,0.60
2018-01-24T14:43:58.281Z,0.43
2018-01-24T14:46:24.559Z,0.50
2018-01-24T14:48:51.534Z,0.57
2018-01-24T14:51:17.779Z,0.50
2018-01-24T14:53:44.368Z,0.60
2018-01-24T14:56:11.364Z,0.97
2018-01-24T14:58:37.615Z,1.30
2018-01-24T15:01:03.997Z,1.20
2018-01-24T15:03:30.245Z,1.60
2018-01-24T15:05:56.548Z,1.87
2018-01-24T15:08:23.535Z,2.70
2018-01-24T15:10:49.893Z,2.83
2018-01-24T15:13:16.159Z,2.40
2018-01-24T15:15:43.271Z,2.30
2018-01-24T15:18:09.586Z,2.80
2018-01-24T15:20:35.942Z,2.90
2018-01-24T15:23:02.240Z,2.53
2018-01-24T15:25:28.544Z,3.13
2018-01-24T15:27:54.870Z,3.20
2018-01-24T15:30:21.123Z,3.23
2018-01-24T15:32:47.430Z,3.27
2018-01-24T15:35:13.810Z,4.07
2018-01-24T15:37:40.158Z,3.50
2018-01-24T15:40:07.244Z,4.07
2018-01-24T15:42:33.556Z,3.40
2018-01-24T15:45:00.588Z,3.13
2018-01-24T15:47:26.866Z,3.10
2018-01-24T15:49:53.142Z,3.70
2018-01-24T15:52:20.158Z,2.47
2018-01-24T15:54:46.429Z,2.20
2018-01-24T15:57:12.811Z,1.93
2018-01-24T15:59:39.131Z,2.67
2018-01-24T16:02:05.421Z,3.30
2018-01-24T16:04:31.803Z,2.30
2018-01-24T16:06:58.147Z,2.47
2018-01-24T16:09:24.464Z,2.40
2018-01-24T16:11:57.626Z,1.93
2018-01-24T16:14:24.687Z,2.10
2018-01-24T16:16:51.031Z,2.17
2018-01-24T16:19:17.328Z,1.83
2018-01-24T16:21:44.405Z,2.00
2018-01-24T16:24:10.666Z,2.50
2018-01-24T16:26:36.972Z,2.07
2018-01-24T16:29:04.239Z,2.30
2018-01-24T16:31:30.507Z,2.70
2018-01-24T16:33:56.883Z,2.50
2018-01-24T16:36:23.228Z,3.10
2018-01-24T16:38:49.502Z,2.90
2018-01-24T16:41:15.841Z,3.03
2018-01-24T16:43:42.858Z,2.87
2018-01-24T16:46:09.188Z,3.80
2018-01-24T16:48:35.464Z,3.70
2018-01-24T16:51:02.529Z,4.87
2018-01-24T16:53:28.798Z,4.70
2018-01-24T16:55:55.052Z,5.40
2018-01-24T16:58:21.334Z,5.60
2018-01-24T17:00:47.596Z,5.27
2018-01-24T17:03:13.890Z,5.90
2018-01-24T17:05:40.124Z,7.33
2018-01-24T17:08:06.376Z,7.17
2018-01-24T17:10:32.630Z,7.03
2018-01-24T17:12:58.958Z,6.80
2018-01-24T17:15:25.272Z,8.17
2018-01-24T17:17:51.499Z,6.87
2018-01-24T17:20:17.817Z,6.60
2018-01-24T17:22:44.093Z,6.53
2018-01-24T17:25:11.069Z,7.80
2018-01-24T17:27:37.393Z,6.57
2018-01-24T17:30:03.671Z,8.03
2018-01-24T17:32:29.959Z,8.80
2018-01-24T17:34:56.325Z,8.13
2018-01-24T17:37:22.625Z,9.70
2018-01-24T17:39:48.951Z,10.00
2018-01-24T17:42:15.313Z,9.10
2018-01-24T17:44:41.596Z,10.03
2018-01-24T17:47:08.608Z,10.53
2018-01-24T17:49:34.855Z,9.50
2018-01-24T17:52:01.101Z,11.23
2018-01-24T17:54:28.063Z,9.03
2018-01-24T17:56:54.355Z,8.97
2018-01-24T17:59:20.628Z,10.30
2018-01-24T18:01:46.906Z,10.67
2018-01-24T18:04:13.176Z,9.53
2018-01-24T18:06:39.449Z,9.00
2018-01-24T18:09:05.704Z,9.57
2018-01-24T18:11:31.986Z,9.43
2018-01-24T18:13:58.358Z,11.03
2018-01-24T18:16:24.710Z,12.10
2018-01-24T18:18:51.717Z,12.23
2018-01-24T18:21:18.152Z,12.00
2018-01-24T18:23:44.469Z,14.03
2018-01-24T18:26:10.766Z,12.57
2018-01-24T18:28:37.145Z,12.27
2018-01-24T18:31:04.058Z,13.87
2018-01-24T18:33:30.323Z,14.50
2018-01-24T18:35:56.561Z,13.00
2018-01-24T18:38:23.551Z,12.97
2018-01-24T18:40:49.821Z,11.93
2018-01-24T18:43:16.328Z,11.67
2018-01-24T18:45:43.392Z,13.20
2018-01-24T18:48:10.280Z,11.97
2018-01-24T18:50:38.106Z,12.50
2018-01-24T18:53:04.346Z,10.80
2018-01-24T18:55:31.134Z,12.60
2018-01-24T18:57:58.178Z,12.53
2018-01-24T19:00:25.232Z,11.80
2018-01-24T19:02:52.263Z,11.03
2018-01-24T19:05:18.617Z,10.27
2018-01-24T19:07:45.618Z,9.00
2018-01-24T19:10:11.900Z,9.30
2018-01-24T19:12:38.141Z,7.90
2018-01-24T19:15:04.424Z,7.67
2018-01-24T19:17:30.717Z,7.37
2018-01-24T19:19:57.025Z,7.23
2018-01-24T19:22:23.321Z,8.20
2018-01-24T19:24:49.555Z,8.63
2018-01-24T19:27:16.612Z,6.73
2018-01-24T19:29:43.624Z,6.20
2018-01-24T19:32:09.906Z,7.30
2018-01-24T19:34:36.340Z,8.77
2018-01-24T19:37:02.627Z,8.07
2018-01-24T19:39:29.322Z,6.63
2018-01-24T19:41:55.668Z,7.70
2018-01-24T19:44:22.040Z,7.37
2018-01-24T19:46:49.512Z,6.87
2018-01-24T19:49:16.566Z,7.03
2018-01-24T19:51:43.643Z,5.57
2018-01-24T19:54:13.187Z,4.57
2018-01-24T19:56:39.635Z,2.23
2018-01-24T19:59:20.734Z,2.70
2018-01-24T20:01:47.749Z,3.10
2018-01-24T20:04:14.116Z,2.43
2018-01-24T20:06:41.160Z,2.03
2018-01-24T20:09:08.344Z,2.00
2018-01-24T20:11:34.634Z,2.23
2018-01-24T20:14:01.692Z,1.93
2018-01-24T20:16:28.069Z,2.17
2018-01-24T20:18:54.356Z,2.13
2018-01-24T20:21:21.411Z,2.20
2018-01-24T20:23:47.843Z,2.17
2018-01-24T20:26:14.311Z,2.20
2018-01-24T20:28:40.758Z,3.03
2018-01-24T20:31:07.065Z,2.80
2018-01-24T20:33:33.367Z,5.50
2018-01-24T20:35:59.673Z,5.57
2018-01-24T20:38:26.953Z,4.47
2018-01-24T20:40:53.981Z,4.80
2018-01-24T20:43:21.764Z,2.30
2018-01-24T20:45:48.100Z,3.07
2018-01-24T20:48:15.180Z,4.23
2018-01-24T20:50:41.532Z,3.27
2018-01-24T20:53:07.786Z,3.57
2018-01-24T20:55:34.098Z,3.30
2018-01-24T20:58:00.392Z,3.07
2018-01-24T21:00:26.715Z,1.40
2018-01-24T21:02:52.986Z,2.00
2018-01-24T21:05:19.312Z,2.40
2018-01-24T21:07:45.669Z,2.27
2018-01-24T21:10:11.943Z,1.77
2018-01-24T21:12:38.228Z,2.60
2018-01-24T21:15:05.357Z,1.57
2018-01-24T21:17:31.670Z,1.90
2018-01-24T21:19:57.941Z,3.13
2018-01-24T21:22:24.199Z,4.50
2018-01-24T21:24:50.557Z,1.20
2018-01-24T21:27:16.867Z,1.63
2018-01-24T21:30:04.762Z,1.80
2018-01-24T21:35:57.953Z,2.30
2018-01-24T21:38:24.208Z,2.10
2018-01-24T21:40:50.463Z,2.30
2018-01-24T21:43:16.762Z,2.37
2018-01-24T21:45:43.994Z,3.00
2018-01-24T21:48:10.990Z,2.67
2018-01-24T21:50:37.828Z,2.50
2018-01-24T21:53:04.098Z,2.60
2018-01-24T21:55:30.339Z,2.10
2018-01-24T21:57:57.388Z,2.73
2018-01-24T22:00:24.218Z,3.03
2018-01-24T22:02:50.485Z,2.37
2018-01-24T22:05:17.495Z,2.20
2018-01-24T22:07:43.758Z,2.10
2018-01-24T22:10:10.371Z,2.33
2018-01-24T22:12:37.448Z,2.27
2018-01-24T22:15:04.477Z,2.47
2018-01-24T22:17:30.775Z,3.10
2018-01-24T22:22:29.084Z,2.50
2018-01-24T22:24:55.420Z,3.00
2018-01-24T22:27:21.755Z,2.87
2018-01-24T22:29:48.118Z,3.00
2018-01-24T22:32:14.420Z,2.90
2018-01-24T22:34:40.731Z,2.63
2018-01-24T22:37:07.049Z,2.27
2018-01-24T22:39:34.141Z,2.43
2018-01-24T22:42:01.247Z,2.20
2018-01-24T22:44:27.547Z,1.97
2018-01-24T22:46:53.838Z,2.50
2018-01-24T22:49:21.624Z,2.70
2018-01-24T22:51:48.634Z,3.30
2018-01-24T22:54:14.882Z,3.47
2018-01-24T22:56:41.143Z,4.33
2018-01-24T22:59:07.357Z,4.83
2018-01-24T23:01:35.176Z,5.70
2018-01-24T23:04:01.432Z,5.83
2018-01-24T23:06:27.694Z,5.10
2018-01-24T23:08:54.690Z,7.27
2018-01-24T23:11:21.091Z,9.53
2018-01-24T23:13:47.354Z,8.70
2018-01-24T23:16:13.739Z,9.43
2018-01-24T23:18:40.057Z,10.03
2018-01-24T23:21:07.098Z,10.23
2018-01-24T23:23:35.012Z,11.63
2018-01-24T23:26:01.363Z,11.50
2018-01-24T23:28:27.696Z,9.70
2018-01-24T23:30:54.102Z,10.97
2018-01-24T23:33:20.605Z,11.30
2018-01-24T23:35:47.687Z,10.27
2018-01-24T23:38:13.979Z,10.87
2018-01-24T23:40:41.101Z,9.87
2018-01-24T23:43:07.421Z,9.40
2018-01-24T23:45:34.675Z,8.57
2018-01-24T23:48:01.012Z,8.93
2018-01-24T23:50:27.375Z,8.17
2018-01-24T23:52:53.804Z,7.33
2018-01-24T23:55:20.976Z,7.53
2018-01-24T23:57:47.304Z,5.50
